sensor_id;sensor_type;location;lat;lon;timestamp;pressure;altitude;pressure_sealevel;temperature;humidity
49040;BME280;36811;49.732;13.402;2023-01-31T00:00:49;97962.97;;;3.24;81.77
49040;BME280;36811;49.732;13.402;2023-01-31T00:03:14;97958.34;;;3.26;81.97
49040;BME280;36811;49.732;13.402;2023-01-31T00:05:40;97949.63;;;3.32;80.88
49040;BME280;36811;49.732;13.402;2023-01-31T00:08:06;97942.50;;;3.39;80.15
49040;BME280;36811;49.732;13.402;2023-01-31T00:10:31;97945.53;;;3.49;78.51
49040;BME280;36811;49.732;13.402;2023-01-31T00:12:57;97942.91;;;3.56;78.86
49040;BME280;36811;49.732;13.402;2023-01-31T00:15:22;97945.13;;;3.59;77.62
49040;BME280;36811;49.732;13.402;2023-01-31T00:17:48;97935.38;;;3.59;77.83
49040;BME280;36811;49.732;13.402;2023-01-31T00:20:14;97949.53;;;3.65;77.05
49040;BME280;36811;49.732;13.402;2023-01-31T00:22:39;97953.56;;;3.67;76.40
49040;BME280;36811;49.732;13.402;2023-01-31T00:25:06;97961.06;;;3.70;75.74
49040;BME280;36811;49.732;13.402;2023-01-31T00:27:32;97970.56;;;3.71;76.19
49040;BME280;36811;49.732;13.402;2023-01-31T00:29:57;97944.84;;;3.73;75.39
49040;BME280;36811;49.732;13.402;2023-01-31T00:32:23;97970.75;;;3.76;75.83
49040;BME280;36811;49.732;13.402;2023-01-31T00:34:52;97982.88;;;3.77;75.53
49040;BME280;36811;49.732;13.402;2023-01-31T00:37:19;97998.66;;;3.77;75.20
49040;BME280;36811;49.732;13.402;2023-01-31T00:39:45;97992.00;;;3.75;76.04
49040;BME280;36811;49.732;13.402;2023-01-31T00:42:11;97996.69;;;3.66;75.33
49040;BME280;36811;49.732;13.402;2023-01-31T00:44:36;97999.31;;;3.60;76.49
49040;BME280;36811;49.732;13.402;2023-01-31T00:47:02;98008.41;;;3.57;75.71
49040;BME280;36811;49.732;13.402;2023-01-31T00:49:27;98011.06;;;3.57;74.15
49040;BME280;36811;49.732;13.402;2023-01-31T00:51:53;98010.88;;;3.59;74.74
49040;BME280;36811;49.732;13.402;2023-01-31T00:54:19;98010.84;;;3.52;75.63
49040;BME280;36811;49.732;13.402;2023-01-31T00:56:44;98017.53;;;3.55;74.70
49040;BME280;36811;49.732;13.402;2023-01-31T00:59:10;98026.66;;;3.59;74.54
49040;BME280;36811;49.732;13.402;2023-01-31T01:01:36;98028.66;;;3.63;74.98
49040;BME280;36811;49.732;13.402;2023-01-31T01:04:02;98020.53;;;3.65;74.68
49040;BME280;36811;49.732;13.402;2023-01-31T01:06:28;98008.63;;;3.62;74.85
49040;BME280;36811;49.732;13.402;2023-01-31T01:08:55;98016.91;;;3.59;76.05
49040;BME280;36811;49.732;13.402;2023-01-31T01:11:29;98015.31;;;3.58;76.77
49040;BME280;36811;49.732;13.402;2023-01-31T01:13:57;98010.66;;;3.54;77.44
49040;BME280;36811;49.732;13.402;2023-01-31T01:16:32;98003.00;;;3.46;78.28
49040;BME280;36811;49.732;13.402;2023-01-31T01:19:01;98008.03;;;3.34;78.74
49040;BME280;36811;49.732;13.402;2023-01-31T01:21:29;98007.47;;;3.26;79.46
49040;BME280;36811;49.732;13.402;2023-01-31T01:23:58;98003.41;;;3.23;79.55
49040;BME280;36811;49.732;13.402;2023-01-31T01:26:27;98015.53;;;3.24;80.45
49040;BME280;36811;49.732;13.402;2023-01-31T01:28:55;98002.38;;;3.24;80.44
49040;BME280;36811;49.732;13.402;2023-01-31T01:31:21;98008.06;;;3.28;80.28
49040;BME280;36811;49.732;13.402;2023-01-31T01:33:57;98011.09;;;3.25;80.86
49040;BME280;36811;49.732;13.402;2023-01-31T01:36:24;98003.41;;;3.23;80.97
49040;BME280;36811;49.732;13.402;2023-01-31T01:38:51;98013.94;;;3.23;80.79
49040;BME280;36811;49.732;13.402;2023-01-31T01:41:17;98015.34;;;3.19;80.74
49040;BME280;36811;49.732;13.402;2023-01-31T01:43:56;98024.84;;;3.20;80.90
49040;BME280;36811;49.732;13.402;2023-01-31T01:46:35;98020.41;;;3.20;80.58
49040;BME280;36811;49.732;13.402;2023-01-31T01:51:40;98017.16;;;3.32;79.65
49040;BME280;36811;49.732;13.402;2023-01-31T01:54:12;98019.38;;;3.35;79.90
49040;BME280;36811;49.732;13.402;2023-01-31T01:56:42;98025.25;;;3.30;80.01
49040;BME280;36811;49.732;13.402;2023-01-31T02:01:40;98038.97;;;2.99;82.19
49040;BME280;36811;49.732;13.402;2023-01-31T02:04:09;98042.41;;;2.87;82.89
49040;BME280;36811;49.732;13.402;2023-01-31T02:06:37;98030.66;;;2.76;83.73
49040;BME280;36811;49.732;13.402;2023-01-31T02:09:06;98029.88;;;2.76;83.22
49040;BME280;36811;49.732;13.402;2023-01-31T02:11:36;98042.81;;;2.77;83.60
49040;BME280;36811;49.732;13.402;2023-01-31T02:14:06;98023.81;;;2.82;82.82
49040;BME280;36811;49.732;13.402;2023-01-31T02:16:33;98023.22;;;2.86;83.41
49040;BME280;36811;49.732;13.402;2023-01-31T02:19:00;98024.44;;;2.90;82.27
49040;BME280;36811;49.732;13.402;2023-01-31T02:33:02;98033.56;;;3.20;79.42
49040;BME280;36811;49.732;13.402;2023-01-31T02:38:16;98059.84;;;3.34;77.68
49040;BME280;36811;49.732;13.402;2023-01-31T02:40:53;98054.56;;;3.40;76.53
49040;BME280;36811;49.732;13.402;2023-01-31T02:43:34;98061.03;;;3.44;76.94
49040;BME280;36811;49.732;13.402;2023-01-31T02:46:33;98066.09;;;3.46;76.29
49040;BME280;36811;49.732;13.402;2023-01-31T02:49:14;98067.91;;;3.45;76.17
49040;BME280;36811;49.732;13.402;2023-01-31T02:55:17;98069.94;;;3.56;74.99
49040;BME280;36811;49.732;13.402;2023-01-31T02:58:05;98066.69;;;3.61;74.90
49040;BME280;36811;49.732;13.402;2023-01-31T03:00:33;98068.09;;;3.63;74.40
49040;BME280;36811;49.732;13.402;2023-01-31T03:03:04;98064.84;;;3.68;73.34
49040;BME280;36811;49.732;13.402;2023-01-31T03:05:30;98076.78;;;3.70;73.13
49040;BME280;36811;49.732;13.402;2023-01-31T03:07:59;98073.16;;;3.71;73.18
49040;BME280;36811;49.732;13.402;2023-01-31T03:19:27;98080.44;;;3.76;71.63
49040;BME280;36811;49.732;13.402;2023-01-31T03:21:50;98073.34;;;3.76;71.67
49040;BME280;36811;49.732;13.402;2023-01-31T03:24:18;98063.44;;;3.78;70.69
49040;BME280;36811;49.732;13.402;2023-01-31T03:26:46;98084.84;;;3.82;71.03
49040;BME280;36811;49.732;13.402;2023-01-31T03:29:14;98078.00;;;3.81;71.61
49040;BME280;36811;49.732;13.402;2023-01-31T03:31:52;98089.13;;;3.83;71.28
49040;BME280;36811;49.732;13.402;2023-01-31T03:34:19;98103.09;;;3.83;71.04
49040;BME280;36811;49.732;13.402;2023-01-31T03:41:54;98123.09;;;3.84;71.28
49040;BME280;36811;49.732;13.402;2023-01-31T03:47:02;98118.88;;;3.83;71.47
49040;BME280;36811;49.732;13.402;2023-01-31T03:49:30;98125.72;;;3.84;71.39
49040;BME280;36811;49.732;13.402;2023-01-31T03:52:06;98128.38;;;3.84;71.46
49040;BME280;36811;49.732;13.402;2023-01-31T03:54:42;98125.94;;;3.83;71.23
49040;BME280;36811;49.732;13.402;2023-01-31T03:57:21;98135.47;;;3.84;71.58
49040;BME280;36811;49.732;13.402;2023-01-31T03:59:51;98128.38;;;3.84;71.56
49040;BME280;36811;49.732;13.402;2023-01-31T04:02:23;98142.56;;;3.83;71.87
49040;BME280;36811;49.732;13.402;2023-01-31T04:04:55;98116.25;;;3.83;70.23
49040;BME280;36811;49.732;13.402;2023-01-31T04:07:23;98144.78;;;3.87;71.10
49040;BME280;36811;49.732;13.402;2023-01-31T04:09:49;98146.78;;;3.84;70.29
49040;BME280;36811;49.732;13.402;2023-01-31T04:12:15;98158.75;;;3.87;70.67
49040;BME280;36811;49.732;13.402;2023-01-31T04:14:41;98153.28;;;3.89;69.77
49040;BME280;36811;49.732;13.402;2023-01-31T04:17:07;98177.97;;;3.88;69.54
49040;BME280;36811;49.732;13.402;2023-01-31T04:19:33;98172.28;;;3.91;69.21
49040;BME280;36811;49.732;13.402;2023-01-31T04:21:58;98161.78;;;3.91;69.51
49040;BME280;36811;49.732;13.402;2023-01-31T04:24:24;98179.38;;;3.90;68.54
49040;BME280;36811;49.732;13.402;2023-01-31T04:26:49;98181.81;;;3.92;67.78
49040;BME280;36811;49.732;13.402;2023-01-31T04:29:15;98155.69;;;3.90;68.43
49040;BME280;36811;49.732;13.402;2023-01-31T04:31:41;98162.00;;;3.89;67.86
49040;BME280;36811;49.732;13.402;2023-01-31T04:34:07;98174.31;;;3.89;69.01
49040;BME280;36811;49.732;13.402;2023-01-31T04:36:33;98182.00;;;3.90;68.48
49040;BME280;36811;49.732;13.402;2023-01-31T04:38:59;98175.34;;;3.94;66.95
49040;BME280;36811;49.732;13.402;2023-01-31T04:41:25;98175.94;;;3.96;66.45
49040;BME280;36811;49.732;13.402;2023-01-31T04:43:51;98192.34;;;3.98;67.32
49040;BME280;36811;49.732;13.402;2023-01-31T04:46:17;98193.97;;;3.99;67.22
49040;BME280;36811;49.732;13.402;2023-01-31T04:48:43;98193.97;;;3.99;66.35
49040;BME280;36811;49.732;13.402;2023-01-31T04:51:09;98195.97;;;4.04;67.10
49040;BME280;36811;49.732;13.402;2023-01-31T04:53:35;98190.94;;;4.02;68.40
49040;BME280;36811;49.732;13.402;2023-01-31T04:56:02;98199.03;;;4.07;67.60
49040;BME280;36811;49.732;13.402;2023-01-31T04:58:28;98194.97;;;4.05;67.21
49040;BME280;36811;49.732;13.402;2023-01-31T05:00:53;98201.66;;;4.07;67.14
49040;BME280;36811;49.732;13.402;2023-01-31T05:03:19;98192.53;;;4.10;67.76
49040;BME280;36811;49.732;13.402;2023-01-31T05:05:49;98186.47;;;4.09;67.15
49040;BME280;36811;49.732;13.402;2023-01-31T05:08:15;98185.44;;;4.04;66.20
49040;BME280;36811;49.732;13.402;2023-01-31T05:10:42;98189.09;;;4.03;66.75
49040;BME280;36811;49.732;13.402;2023-01-31T05:13:09;98180.38;;;3.96;66.39
49040;BME280;36811;49.732;13.402;2023-01-31T05:15:34;98173.72;;;3.93;67.36
49040;BME280;36811;49.732;13.402;2023-01-31T05:18:01;98186.06;;;3.93;67.67
49040;BME280;36811;49.732;13.402;2023-01-31T05:20:32;98192.53;;;3.97;67.50
49040;BME280;36811;49.732;13.402;2023-01-31T05:23:01;98198.41;;;3.99;67.53
49040;BME280;36811;49.732;13.402;2023-01-31T05:25:27;98197.00;;;3.96;68.35
49040;BME280;36811;49.732;13.402;2023-01-31T05:27:53;98190.91;;;3.96;67.21
49040;BME280;36811;49.732;13.402;2023-01-31T05:30:19;98202.25;;;3.83;68.75
49040;BME280;36811;49.732;13.402;2023-01-31T05:32:47;98185.25;;;3.72;70.41
49040;BME280;36811;49.732;13.402;2023-01-31T05:35:14;98208.69;;;3.54;72.77
49040;BME280;36811;49.732;13.402;2023-01-31T05:37:40;98203.44;;;3.41;73.32
49040;BME280;36811;49.732;13.402;2023-01-31T05:40:12;98210.84;;;3.25;74.86
49040;BME280;36811;49.732;13.402;2023-01-31T05:42:38;98201.94;;;3.12;75.67
49040;BME280;36811;49.732;13.402;2023-01-31T05:45:05;98197.47;;;3.06;75.87
49040;BME280;36811;49.732;13.402;2023-01-31T05:47:32;98205.56;;;3.05;75.75
49040;BME280;36811;49.732;13.402;2023-01-31T05:49:57;98210.81;;;3.05;75.70
49040;BME280;36811;49.732;13.402;2023-01-31T05:52:23;98207.38;;;3.04;75.31
49040;BME280;36811;49.732;13.402;2023-01-31T05:54:48;98198.66;;;3.04;75.20
49040;BME280;36811;49.732;13.402;2023-01-31T05:57:14;98204.94;;;3.03;75.36
49040;BME280;36811;49.732;13.402;2023-01-31T05:59:41;98211.19;;;3.02;75.50
49040;BME280;36811;49.732;13.402;2023-01-31T06:02:07;98212.00;;;3.02;75.86
49040;BME280;36811;49.732;13.402;2023-01-31T06:04:36;98222.31;;;3.04;75.74
49040;BME280;36811;49.732;13.402;2023-01-31T06:07:02;98202.94;;;3.05;75.58
49040;BME280;36811;49.732;13.402;2023-01-31T06:09:28;98206.53;;;3.04;75.58
49040;BME280;36811;49.732;13.402;2023-01-31T06:11:54;98212.63;;;3.04;75.49
49040;BME280;36811;49.732;13.402;2023-01-31T06:14:20;98215.47;;;3.03;75.31
49040;BME280;36811;49.732;13.402;2023-01-31T06:16:45;98226.78;;;3.03;75.16
49040;BME280;36811;49.732;13.402;2023-01-31T06:19:11;98231.22;;;3.03;75.23
49040;BME280;36811;49.732;13.402;2023-01-31T06:21:37;98228.78;;;3.01;75.06
49040;BME280;36811;49.732;13.402;2023-01-31T06:24:03;98228.38;;;3.04;74.58
49040;BME280;36811;49.732;13.402;2023-01-31T06:26:28;98232.81;;;3.04;74.69
49040;BME280;36811;49.732;13.402;2023-01-31T06:28:54;98244.75;;;3.06;75.29
49040;BME280;36811;49.732;13.402;2023-01-31T06:31:20;98244.59;;;3.08;74.51
49040;BME280;36811;49.732;13.402;2023-01-31T06:33:46;98243.34;;;3.04;74.92
49040;BME280;36811;49.732;13.402;2023-01-31T06:36:12;98253.84;;;3.04;74.64
49040;BME280;36811;49.732;13.402;2023-01-31T06:38:37;98247.59;;;3.05;75.26
49040;BME280;36811;49.732;13.402;2023-01-31T06:41:03;98256.69;;;3.02;74.51
49040;BME280;36811;49.732;13.402;2023-01-31T06:43:29;98257.88;;;3.00;74.05
49040;BME280;36811;49.732;13.402;2023-01-31T06:45:55;98265.56;;;3.01;74.06
49040;BME280;36811;49.732;13.402;2023-01-31T06:48:20;98269.22;;;3.00;74.14
49040;BME280;36811;49.732;13.402;2023-01-31T06:50:46;98271.25;;;3.05;73.91
49040;BME280;36811;49.732;13.402;2023-01-31T06:53:11;98276.94;;;3.08;74.17
49040;BME280;36811;49.732;13.402;2023-01-31T06:55:38;98284.22;;;3.13;73.15
49040;BME280;36811;49.732;13.402;2023-01-31T06:58:03;98274.31;;;3.15;72.74
49040;BME280;36811;49.732;13.402;2023-01-31T07:00:29;98268.47;;;3.19;72.15
49040;BME280;36811;49.732;13.402;2023-01-31T07:02:55;98274.16;;;3.23;72.68
49040;BME280;36811;49.732;13.402;2023-01-31T07:05:22;98271.94;;;3.27;71.81
49040;BME280;36811;49.732;13.402;2023-01-31T07:07:48;98275.81;;;3.31;71.98
49040;BME280;36811;49.732;13.402;2023-01-31T07:10:15;98287.34;;;3.36;71.76
49040;BME280;36811;49.732;13.402;2023-01-31T07:12:41;98290.38;;;3.40;71.25
49040;BME280;36811;49.732;13.402;2023-01-31T07:15:09;98294.66;;;3.41;70.68
49040;BME280;36811;49.732;13.402;2023-01-31T07:17:35;98287.56;;;3.41;70.86
49040;BME280;36811;49.732;13.402;2023-01-31T07:20:02;98290.59;;;3.45;70.50
49040;BME280;36811;49.732;13.402;2023-01-31T07:22:28;98279.69;;;3.48;70.23
49040;BME280;36811;49.732;13.402;2023-01-31T07:24:54;98283.75;;;3.50;69.92
49040;BME280;36811;49.732;13.402;2023-01-31T07:27:19;98286.59;;;3.55;69.78
49040;BME280;36811;49.732;13.402;2023-01-31T07:29:45;98283.97;;;3.55;69.55
49040;BME280;36811;49.732;13.402;2023-01-31T07:32:11;98287.41;;;3.56;69.60
49040;BME280;36811;49.732;13.402;2023-01-31T07:34:37;98292.47;;;3.57;69.25
49040;BME280;36811;49.732;13.402;2023-01-31T07:37:03;98292.06;;;3.54;69.60
49040;BME280;36811;49.732;13.402;2023-01-31T07:39:29;98274.22;;;3.49;68.73
49040;BME280;36811;49.732;13.402;2023-01-31T07:41:54;98278.06;;;3.47;69.16
49040;BME280;36811;49.732;13.402;2023-01-31T07:44:20;98292.03;;;3.47;68.79
49040;BME280;36811;49.732;13.402;2023-01-31T07:46:46;98289.22;;;3.49;69.16
49040;BME280;36811;49.732;13.402;2023-01-31T07:49:13;98295.47;;;3.48;68.60
49040;BME280;36811;49.732;13.402;2023-01-31T07:51:38;98289.22;;;3.49;68.75
49040;BME280;36811;49.732;13.402;2023-01-31T07:54:05;98292.44;;;3.51;69.25
49040;BME280;36811;49.732;13.402;2023-01-31T07:56:31;98271.41;;;3.57;69.13
49040;BME280;36811;49.732;13.402;2023-01-31T07:58:58;98308.47;;;3.62;68.84
49040;BME280;36811;49.732;13.402;2023-01-31T08:01:26;98308.50;;;3.69;68.58
49040;BME280;36811;49.732;13.402;2023-01-31T08:04:13;98312.34;;;3.79;68.59
49040;BME280;36811;49.732;13.402;2023-01-31T08:06:42;98312.97;;;3.81;68.55
49040;BME280;36811;49.732;13.402;2023-01-31T08:09:08;98325.72;;;3.84;68.83
49040;BME280;36811;49.732;13.402;2023-01-31T08:11:34;98321.91;;;3.94;69.24
49040;BME280;36811;49.732;13.402;2023-01-31T08:14:00;98322.31;;;4.04;69.17
49040;BME280;36811;49.732;13.402;2023-01-31T08:16:26;98331.84;;;4.11;69.10
49040;BME280;36811;49.732;13.402;2023-01-31T08:18:52;98336.09;;;4.19;69.48
49040;BME280;36811;49.732;13.402;2023-01-31T08:21:18;98329.25;;;4.37;69.32
49040;BME280;36811;49.732;13.402;2023-01-31T08:23:45;98334.91;;;4.47;68.26
49040;BME280;36811;49.732;13.402;2023-01-31T08:26:14;98339.38;;;4.47;68.54
49040;BME280;36811;49.732;13.402;2023-01-31T08:28:43;98339.97;;;4.49;68.50
49040;BME280;36811;49.732;13.402;2023-01-31T08:31:16;98349.69;;;4.62;68.70
49040;BME280;36811;49.732;13.402;2023-01-31T08:33:43;98332.84;;;4.69;68.14
49040;BME280;36811;49.732;13.402;2023-01-31T08:36:13;98331.63;;;4.78;67.38
49040;BME280;36811;49.732;13.402;2023-01-31T08:38:40;98327.78;;;4.61;67.37
49040;BME280;36811;49.732;13.402;2023-01-31T08:41:06;98341.19;;;4.60;67.95
49040;BME280;36811;49.732;13.402;2023-01-31T08:43:32;98335.72;;;4.55;67.43
49040;BME280;36811;49.732;13.402;2023-01-31T08:45:57;98340.19;;;4.47;66.37
49040;BME280;36811;49.732;13.402;2023-01-31T08:48:23;98346.03;;;4.43;67.18
49040;BME280;36811;49.732;13.402;2023-01-31T08:50:49;98344.00;;;4.58;66.85
49040;BME280;36811;49.732;13.402;2023-01-31T08:53:14;98346.84;;;4.63;66.91
49040;BME280;36811;49.732;13.402;2023-01-31T08:55:40;98323.53;;;4.67;65.96
49040;BME280;36811;49.732;13.402;2023-01-31T08:58:06;98313.00;;;4.67;65.65
49040;BME280;36811;49.732;13.402;2023-01-31T09:00:32;98323.34;;;4.75;65.37
49040;BME280;36811;49.732;13.402;2023-01-31T09:03:00;98346.00;;;4.76;65.57
49040;BME280;36811;49.732;13.402;2023-01-31T09:05:27;98340.56;;;4.64;64.82
49040;BME280;36811;49.732;13.402;2023-01-31T09:07:54;98338.53;;;4.46;65.62
49040;BME280;36811;49.732;13.402;2023-01-31T09:10:21;98339.16;;;4.55;65.07
49040;BME280;36811;49.732;13.402;2023-01-31T09:12:47;98350.31;;;4.57;65.45
49040;BME280;36811;49.732;13.402;2023-01-31T09:15:13;98339.16;;;4.62;65.19
49040;BME280;36811;49.732;13.402;2023-01-31T09:17:40;98350.91;;;4.59;65.03
49040;BME280;36811;49.732;13.402;2023-01-31T09:20:07;98346.25;;;4.68;65.09
49040;BME280;36811;49.732;13.402;2023-01-31T09:22:35;98342.78;;;4.61;63.95
49040;BME280;36811;49.732;13.402;2023-01-31T09:25:01;98342.38;;;4.64;64.42
49040;BME280;36811;49.732;13.402;2023-01-31T09:27:29;98348.25;;;4.72;63.97
49040;BME280;36811;49.732;13.402;2023-01-31T09:29:55;98333.66;;;4.83;64.05
49040;BME280;36811;49.732;13.402;2023-01-31T09:32:21;98339.72;;;4.83;64.60
49040;BME280;36811;49.732;13.402;2023-01-31T09:34:47;98330.00;;;4.90;63.63
49040;BME280;36811;49.732;13.402;2023-01-31T09:37:16;98331.38;;;4.99;63.65
49040;BME280;36811;49.732;13.402;2023-01-31T09:39:41;98336.44;;;5.07;63.38
49040;BME280;36811;49.732;13.402;2023-01-31T09:44:42;98334.63;;;5.01;62.71
49040;BME280;36811;49.732;13.402;2023-01-31T09:47:23;98351.03;;;5.10;63.24
49040;BME280;36811;49.732;13.402;2023-01-31T09:50:17;98341.09;;;5.12;63.54
49040;BME280;36811;49.732;13.402;2023-01-31T09:52:45;98345.94;;;5.22;63.15
49040;BME280;36811;49.732;13.402;2023-01-31T09:55:20;98338.66;;;5.24;63.18
49040;BME280;36811;49.732;13.402;2023-01-31T10:00:22;98346.94;;;5.34;63.20
49040;BME280;36811;49.732;13.402;2023-01-31T10:08:47;98352.25;;;5.07;64.01
49040;BME280;36811;49.732;13.402;2023-01-31T10:14:19;98348.78;;;5.20;63.34
49040;BME280;36811;49.732;13.402;2023-01-31T10:17:10;98339.88;;;5.14;63.55
49040;BME280;36811;49.732;13.402;2023-01-31T10:19:56;98338.66;;;5.17;63.39
49040;BME280;36811;49.732;13.402;2023-01-31T10:22:37;98338.66;;;5.17;63.82
49040;BME280;36811;49.732;13.402;2023-01-31T10:33:24;98310.94;;;4.95;64.49
49040;BME280;36811;49.732;13.402;2023-01-31T10:35:54;98337.88;;;4.97;64.87
49040;BME280;36811;49.732;13.402;2023-01-31T10:38:40;98328.72;;;5.06;65.76
49040;BME280;36811;49.732;13.402;2023-01-31T10:41:23;98317.19;;;5.00;65.79
49040;BME280;36811;49.732;13.402;2023-01-31T10:43:59;98319.66;;;4.95;66.03
49040;BME280;36811;49.732;13.402;2023-01-31T10:46:27;98307.88;;;4.98;66.37
49040;BME280;36811;49.732;13.402;2023-01-31T10:48:53;98308.91;;;4.90;66.45
49040;BME280;36811;49.732;13.402;2023-01-31T10:54:18;98294.47;;;4.99;66.72
49040;BME280;36811;49.732;13.402;2023-01-31T10:56:47;98289.44;;;4.98;65.84
49040;BME280;36811;49.732;13.402;2023-01-31T10:59:30;98296.34;;;4.92;66.54
49040;BME280;36811;49.732;13.402;2023-01-31T11:01:57;98284.38;;;4.83;67.09
49040;BME280;36811;49.732;13.402;2023-01-31T11:04:44;98281.13;;;4.81;67.00
49040;BME280;36811;49.732;13.402;2023-01-31T11:07:10;98282.38;;;4.72;67.15
49040;BME280;36811;49.732;13.402;2023-01-31T11:09:40;98274.69;;;4.77;66.89
49040;BME280;36811;49.732;13.402;2023-01-31T11:12:08;98262.28;;;4.84;66.74
49040;BME280;36811;49.732;13.402;2023-01-31T11:14:34;98268.38;;;4.85;66.70
49040;BME280;36811;49.732;13.402;2023-01-31T11:17:11;98252.34;;;4.86;66.97
49040;BME280;36811;49.732;13.402;2023-01-31T11:19:45;98246.66;;;4.89;67.18
49040;BME280;36811;49.732;13.402;2023-01-31T11:22:28;98245.41;;;4.98;66.03
49040;BME280;36811;49.732;13.402;2023-01-31T11:24:56;98238.53;;;4.91;66.56
49040;BME280;36811;49.732;13.402;2023-01-31T11:27:30;98233.91;;;4.86;66.27
49040;BME280;36811;49.732;13.402;2023-01-31T11:29:58;98237.78;;;4.77;66.50
49040;BME280;36811;49.732;13.402;2023-01-31T11:32:29;98233.72;;;4.81;67.03
49040;BME280;36811;49.732;13.402;2023-01-31T11:35:05;98226.41;;;4.83;66.69
49040;BME280;36811;49.732;13.402;2023-01-31T11:37:33;98228.81;;;4.91;66.76
49040;BME280;36811;49.732;13.402;2023-01-31T11:42:26;98221.84;;;5.03;66.23
49040;BME280;36811;49.732;13.402;2023-01-31T11:44:59;98218.22;;;5.04;66.80
49040;BME280;36811;49.732;13.402;2023-01-31T11:47:45;98211.75;;;5.00;66.92
49040;BME280;36811;49.732;13.402;2023-01-31T11:53:03;98209.72;;;4.96;66.85
49040;BME280;36811;49.732;13.402;2023-01-31T11:55:39;98205.66;;;5.00;66.91
49040;BME280;36811;49.732;13.402;2023-01-31T12:01:00;98185.81;;;4.91;66.99
49040;BME280;36811;49.732;13.402;2023-01-31T12:03:27;98179.94;;;4.95;66.78
49040;BME280;36811;49.732;13.402;2023-01-31T12:06:08;98192.13;;;4.83;67.21
49040;BME280;36811;49.732;13.402;2023-01-31T12:08:39;98185.03;;;4.90;67.16
49040;BME280;36811;49.732;13.402;2023-01-31T12:11:24;98193.50;;;4.99;66.66
49040;BME280;36811;49.732;13.402;2023-01-31T12:13:53;98176.50;;;4.95;66.91
49040;BME280;36811;49.732;13.402;2023-01-31T12:16:26;98172.22;;;5.00;66.87
49040;BME280;36811;49.732;13.402;2023-01-31T12:29:54;98149.53;;;5.31;66.47
49040;BME280;36811;49.732;13.402;2023-01-31T12:46:24;98124.88;;;5.19;65.07
49040;BME280;36811;49.732;13.402;2023-01-31T12:57:50;98104.91;;;4.98;66.44
49040;BME280;36811;49.732;13.402;2023-01-31T13:05:30;98104.34;;;4.89;66.58
49040;BME280;36811;49.732;13.402;2023-01-31T13:08:04;98059.19;;;4.79;66.49
49040;BME280;36811;49.732;13.402;2023-01-31T13:10:42;98080.50;;;4.78;66.63
49040;BME280;36811;49.732;13.402;2023-01-31T13:13:21;98096.91;;;4.80;66.93
49040;BME280;36811;49.732;13.402;2023-01-31T13:18:25;98083.84;;;4.91;66.26
49040;BME280;36811;49.732;13.402;2023-01-31T13:20:56;98091.34;;;4.94;66.05
49040;BME280;36811;49.732;13.402;2023-01-31T13:23:37;98092.44;;;5.11;65.91
49040;BME280;36811;49.732;13.402;2023-01-31T13:26:16;98086.91;;;5.20;65.47
49040;BME280;36811;49.732;13.402;2023-01-31T13:28:54;98083.84;;;5.23;64.44
49040;BME280;36811;49.732;13.402;2023-01-31T13:31:30;98094.91;;;5.06;65.58
49040;BME280;36811;49.732;13.402;2023-01-31T13:36:42;98108.72;;;5.02;65.54
49040;BME280;36811;49.732;13.402;2023-01-31T13:41:56;98094.72;;;5.01;65.53
49040;BME280;36811;49.732;13.402;2023-01-31T13:44:22;98080.56;;;4.96;65.10
49040;BME280;36811;49.732;13.402;2023-01-31T13:47:26;98073.06;;;4.99;65.51
49040;BME280;36811;49.732;13.402;2023-01-31T13:50:29;98073.09;;;4.93;65.84
49040;BME280;36811;49.732;13.402;2023-01-31T13:52:59;98067.03;;;4.92;66.10
49040;BME280;36811;49.732;13.402;2023-01-31T13:55:39;98065.63;;;4.90;65.97
49040;BME280;36811;49.732;13.402;2023-01-31T13:58:13;98062.81;;;4.85;66.09
49040;BME280;36811;49.732;13.402;2023-01-31T14:00:47;98059.75;;;4.88;66.25
49040;BME280;36811;49.732;13.402;2023-01-31T14:03:17;98052.44;;;4.90;65.94
49040;BME280;36811;49.732;13.402;2023-01-31T14:10:58;98046.00;;;4.79;66.32
49040;BME280;36811;49.732;13.402;2023-01-31T14:13:37;98043.16;;;4.81;66.38
49040;BME280;36811;49.732;13.402;2023-01-31T14:16:39;98041.00;;;4.71;67.38
49040;BME280;36811;49.732;13.402;2023-01-31T14:22:12;98030.50;;;4.65;68.53
49040;BME280;36811;49.732;13.402;2023-01-31T14:27:21;98016.16;;;4.54;69.03
49040;BME280;36811;49.732;13.402;2023-01-31T14:30:36;98003.28;;;4.39;70.21
49040;BME280;36811;49.732;13.402;2023-01-31T14:33:07;97994.41;;;4.34;70.76
49040;BME280;36811;49.732;13.402;2023-01-31T14:36:18;97987.47;;;4.39;70.55
49040;BME280;36811;49.732;13.402;2023-01-31T14:39:00;97987.94;;;4.30;70.87
49040;BME280;36811;49.732;13.402;2023-01-31T14:41:49;97993.44;;;4.22;71.43
49040;BME280;36811;49.732;13.402;2023-01-31T14:47:39;97998.09;;;4.26;71.70
49040;BME280;36811;49.732;13.402;2023-01-31T14:53:17;97998.13;;;4.13;71.57
49040;BME280;36811;49.732;13.402;2023-01-31T14:58:26;97995.72;;;4.12;71.30
49040;BME280;36811;49.732;13.402;2023-01-31T15:00:58;98001.00;;;4.12;71.77
49040;BME280;36811;49.732;13.402;2023-01-31T15:03:30;97985.16;;;4.18;71.32
49040;BME280;36811;49.732;13.402;2023-01-31T15:06:32;97981.50;;;4.19;71.19
49040;BME280;36811;49.732;13.402;2023-01-31T15:11:51;97984.56;;;4.16;70.80
49040;BME280;36811;49.732;13.402;2023-01-31T15:14:37;97997.50;;;4.18;70.44
49040;BME280;36811;49.732;13.402;2023-01-31T15:17:28;98000.94;;;4.18;70.06
49040;BME280;36811;49.732;13.402;2023-01-31T15:20:18;98000.34;;;4.16;70.26
49040;BME280;36811;49.732;13.402;2023-01-31T15:22:47;98013.28;;;4.18;70.25
49040;BME280;36811;49.732;13.402;2023-01-31T15:25:43;98024.28;;;4.08;69.82
49040;BME280;36811;49.732;13.402;2023-01-31T15:28:16;98023.28;;;4.09;70.12
49040;BME280;36811;49.732;13.402;2023-01-31T15:30:43;98015.97;;;4.11;69.47
49040;BME280;36811;49.732;13.402;2023-01-31T15:38:55;98015.59;;;4.01;69.78
49040;BME280;36811;49.732;13.402;2023-01-31T15:43:54;98041.91;;;4.01;70.02
49040;BME280;36811;49.732;13.402;2023-01-31T15:46:32;98026.34;;;4.00;69.81